Korolev, Russia
Current Conditions -  °F | °C
As of 5:00 PM on Sunday 25 Jan 2015 (Local Time) from UUEE Reporting Station
Clear Clear  
Wind Chill:   Ceiling: Unl
Heat Index: 16°   Visibility: 6mi
Dew Point:   Wind: 9mph
Humidity: 73%   Direction: 160°SSE
Pressure: 30.42"   Gusts: NA
Location:  55.93°N, 37.77°E
Report Text: UUEE 251400Z 16004MPS CAVOK M09/M13 Q1030 07510251 57510251NOSIG
Loading
Personal Weather Stations






























Interactive Weather Map New forecast layout! Learn more

10-Day Weather Forecast

Advertisements
Track Severe Weather on mobile